createdAt,value
2018-01-02T00:01:45.359Z,69.40
2018-01-02T00:04:12.949Z,69.40
2018-01-02T00:06:40.525Z,69.40
2018-01-02T00:09:08.051Z,69.40
2018-01-02T00:11:35.603Z,69.40
2018-01-02T00:14:03.228Z,69.50
2018-01-02T00:16:31.644Z,69.50
2018-01-02T00:18:59.242Z,69.40
2018-01-02T00:21:26.818Z,69.50
2018-01-02T00:23:54.508Z,69.50
2018-01-02T00:26:22.790Z,69.50
2018-01-02T00:28:50.378Z,69.40
2018-01-02T00:31:18.384Z,69.50
2018-01-02T00:33:45.919Z,69.50
2018-01-02T00:36:13.491Z,69.50
2018-01-02T00:38:41.062Z,69.50
2018-01-02T00:41:08.633Z,69.40
2018-01-02T00:43:36.144Z,69.50
2018-01-02T00:46:03.662Z,69.40
2018-01-02T00:48:31.986Z,69.50
2018-01-02T00:50:59.553Z,69.40
2018-01-02T00:53:27.130Z,69.50
2018-01-02T00:55:54.693Z,69.50
2018-01-02T00:58:22.223Z,69.50
2018-01-02T01:00:49.744Z,69.50
2018-01-02T01:03:18.024Z,69.50
2018-01-02T01:05:46.322Z,70.20
2018-01-02T01:08:13.852Z,69.40
2018-01-02T01:10:42.139Z,69.50
2018-01-02T01:13:10.477Z,69.40
2018-01-02T01:15:38.002Z,69.40
2018-01-02T01:18:05.576Z,69.50
2018-01-02T01:20:33.122Z,69.40
2018-01-02T01:23:00.641Z,69.40
2018-01-02T01:25:28.284Z,69.40
2018-01-02T01:27:55.802Z,69.40
2018-01-02T01:30:23.385Z,69.40
2018-01-02T01:32:50.899Z,69.40
2018-01-02T01:35:19.214Z,69.50
2018-01-02T01:37:46.763Z,69.40
2018-01-02T01:40:14.297Z,69.40
2018-01-02T01:42:42.609Z,69.50
2018-01-02T01:45:10.157Z,69.50
2018-01-02T01:47:37.688Z,69.40
2018-01-02T01:50:06.051Z,69.40
2018-01-02T01:52:33.661Z,69.40
2018-01-02T01:55:01.234Z,69.50
2018-01-02T01:57:28.748Z,69.50
2018-01-02T01:59:57.059Z,69.50
2018-01-02T02:02:24.578Z,69.50
2018-01-02T02:04:52.212Z,69.50
2018-01-02T02:07:19.851Z,69.40
2018-01-02T02:09:47.425Z,69.50
2018-01-02T02:12:14.933Z,69.50
2018-01-02T02:14:42.451Z,69.50
2018-01-02T02:17:10.735Z,69.50
2018-01-02T02:19:39.027Z,69.50
2018-01-02T02:22:07.291Z,69.50
2018-01-02T02:24:34.800Z,69.50
2018-01-02T02:27:02.296Z,69.50
2018-01-02T02:29:29.805Z,69.50
2018-01-02T02:31:57.327Z,69.50
2018-01-02T02:34:24.839Z,69.50
2018-01-02T02:36:52.339Z,69.50
2018-01-02T02:39:20.629Z,69.50
2018-01-02T02:41:48.925Z,69.50
2018-01-02T02:44:16.446Z,69.50
2018-01-02T02:46:43.948Z,69.50
2018-01-02T02:49:12.244Z,69.60
2018-01-02T02:51:40.530Z,69.50
2018-01-02T02:54:08.812Z,69.70
2018-01-02T02:56:36.320Z,69.50
2018-01-02T02:59:03.833Z,69.80
2018-01-02T03:01:31.343Z,69.50
2018-01-02T03:03:59.621Z,69.50
2018-01-02T03:06:27.881Z,69.60
2018-01-02T03:08:55.404Z,69.40
2018-01-02T03:11:22.896Z,69.50
2018-01-02T03:13:50.412Z,69.60
2018-01-02T03:16:17.929Z,69.50
2018-01-02T03:18:45.447Z,69.50
2018-01-02T03:21:12.965Z,69.40
2018-01-02T03:23:40.469Z,69.50
2018-01-02T03:26:08.024Z,69.40
2018-01-02T03:28:36.310Z,69.40
2018-01-02T03:31:03.819Z,69.40
2018-01-02T03:33:31.346Z,69.40
2018-01-02T03:35:58.859Z,69.40
2018-01-02T03:38:26.363Z,69.40
2018-01-02T03:40:54.653Z,69.50
2018-01-02T03:43:22.912Z,69.60
2018-01-02T03:45:50.427Z,69.40
2018-01-02T03:48:17.925Z,69.60
2018-01-02T03:50:45.446Z,69.40
2018-01-02T03:53:12.970Z,69.50
2018-01-02T03:55:40.512Z,69.40
2018-01-02T03:58:07.998Z,69.40
2018-01-02T04:00:35.515Z,69.50
2018-01-02T04:03:03.028Z,69.50
2018-01-02T04:05:30.537Z,69.50
2018-01-02T04:07:58.038Z,69.40
2018-01-02T04:10:25.574Z,69.60
2018-01-02T04:12:53.116Z,69.50
2018-01-02T04:15:20.638Z,69.50
2018-01-02T04:17:48.123Z,69.50
2018-01-02T04:20:15.655Z,69.50
2018-01-02T04:22:43.154Z,69.50
2018-01-02T04:25:10.660Z,69.50
2018-01-02T04:27:38.970Z,69.50
2018-01-02T04:30:06.476Z,69.50
2018-01-02T04:32:33.980Z,69.50
2018-01-02T04:35:02.267Z,69.50
2018-01-02T04:37:29.751Z,69.50
2018-01-02T04:39:57.329Z,70.30
2018-01-02T04:42:25.624Z,69.50
2018-01-02T04:44:53.169Z,69.50
2018-01-02T04:47:20.693Z,69.50
2018-01-02T04:49:48.240Z,69.60
2018-01-02T04:52:15.772Z,69.60
2018-01-02T04:54:43.314Z,69.50
2018-01-02T04:57:10.811Z,69.50
2018-01-02T04:59:38.323Z,69.50
2018-01-02T05:02:06.646Z,69.60
2018-01-02T05:04:34.191Z,69.50
2018-01-02T05:07:02.453Z,69.50
2018-01-02T05:09:30.752Z,69.60
2018-01-02T05:11:58.265Z,69.60
2018-01-02T05:14:25.771Z,69.60
2018-01-02T05:16:53.274Z,69.60
2018-01-02T05:19:21.560Z,69.60
2018-01-02T05:21:49.835Z,69.60
2018-01-02T05:24:17.360Z,69.60
2018-01-02T05:26:44.929Z,69.60
2018-01-02T05:29:12.418Z,69.50
2018-01-02T05:31:39.970Z,69.60
2018-01-02T05:34:07.479Z,69.50
2018-01-02T05:36:34.994Z,69.60
2018-01-02T05:39:02.558Z,69.60
2018-01-02T05:41:30.058Z,69.70
2018-01-02T05:43:57.577Z,70.40
2018-01-02T05:46:25.111Z,69.60
2018-01-02T05:48:52.614Z,69.60
2018-01-02T05:51:20.129Z,69.60
2018-01-02T05:53:47.692Z,69.60
2018-01-02T05:56:15.224Z,69.60
2018-01-02T05:58:42.737Z,69.60
2018-01-02T06:01:10.248Z,69.60
2018-01-02T06:03:37.769Z,69.60
2018-01-02T06:06:06.056Z,69.70
2018-01-02T06:08:34.346Z,69.60
2018-01-02T06:11:02.629Z,69.70
2018-01-02T06:13:30.136Z,69.60
2018-01-02T06:15:57.666Z,68.90
2018-01-02T06:18:25.189Z,69.60
2018-01-02T06:20:52.763Z,69.60
2018-01-02T06:23:21.016Z,69.60
2018-01-02T06:25:49.289Z,69.70
2018-01-02T06:28:17.632Z,69.60
2018-01-02T06:30:45.152Z,69.60
2018-01-02T06:33:12.644Z,69.60
2018-01-02T06:35:40.931Z,69.70
2018-01-02T06:38:09.183Z,69.70
2018-01-02T06:40:36.691Z,69.60
2018-01-02T06:43:04.956Z,69.70
2018-01-02T06:45:32.480Z,69.60
2018-01-02T06:47:59.988Z,69.80
2018-01-02T06:50:27.507Z,69.60
2018-01-02T06:52:54.995Z,69.70
2018-01-02T06:55:22.534Z,69.70
2018-01-02T06:57:50.800Z,69.70
2018-01-02T07:00:18.317Z,69.60
2018-01-02T07:02:45.824Z,69.60
2018-01-02T07:05:13.314Z,69.60
2018-01-02T07:07:40.874Z,69.60
2018-01-02T07:10:08.419Z,70.50
2018-01-02T07:12:35.964Z,69.60
2018-01-02T07:15:04.069Z,69.60
2018-01-02T07:17:31.591Z,69.60
2018-01-02T07:19:59.084Z,69.60
2018-01-02T07:22:26.605Z,69.60
2018-01-02T07:24:54.095Z,69.60
2018-01-02T07:27:21.711Z,69.60
2018-01-02T07:29:49.237Z,69.60
2018-01-02T07:32:16.784Z,69.60
2018-01-02T07:34:44.273Z,69.60
2018-01-02T07:37:11.779Z,69.60
2018-01-02T07:39:39.297Z,69.60
2018-01-02T07:42:06.804Z,69.60
2018-01-02T07:44:34.310Z,69.60
2018-01-02T07:47:01.820Z,69.60
2018-01-02T07:49:29.320Z,69.60
2018-01-02T07:51:57.599Z,69.60
2018-01-02T07:54:25.120Z,69.60
2018-01-02T07:56:52.620Z,69.60
2018-01-02T07:59:20.144Z,69.60
2018-01-02T08:01:48.407Z,69.70
2018-01-02T08:04:15.918Z,69.70
2018-01-02T08:06:43.436Z,70.60
2018-01-02T08:09:10.948Z,69.60
2018-01-02T08:11:38.457Z,69.60
2018-01-02T08:14:05.965Z,69.60
2018-01-02T08:16:33.475Z,69.60
2018-01-02T08:19:01.020Z,69.60
2018-01-02T08:21:29.282Z,67.00
2018-01-02T08:23:56.793Z,67.00
2018-01-02T08:26:24.417Z,63.20
2018-01-02T08:28:51.950Z,60.00
2018-01-02T08:31:19.461Z,58.70
2018-01-02T08:33:46.977Z,57.80
2018-01-02T08:36:14.748Z,57.20
2018-01-02T08:38:43.033Z,56.30
2018-01-02T08:41:11.399Z,56.10
2018-01-02T08:43:38.912Z,56.00
2018-01-02T08:46:06.420Z,55.70
2018-01-02T08:48:33.919Z,55.50
2018-01-02T08:51:01.443Z,55.40
2018-01-02T08:53:28.936Z,55.20
2018-01-02T08:55:56.445Z,55.00
2018-01-02T08:58:24.719Z,55.10
2018-01-02T09:00:52.225Z,55.00
2018-01-02T09:03:19.743Z,55.00
2018-01-02T09:05:47.262Z,54.90
2018-01-02T09:08:15.535Z,54.90
2018-01-02T09:10:43.027Z,54.80
2018-01-02T09:13:16.442Z,54.90
2018-01-02T09:15:43.958Z,55.00
2018-01-02T09:18:11.478Z,54.90
2018-01-02T09:20:38.987Z,54.90
2018-01-02T09:23:06.503Z,55.50
2018-01-02T09:25:34.770Z,58.90
2018-01-02T09:28:02.286Z,58.80
2018-01-02T09:30:29.834Z,60.50
2018-01-02T09:32:58.114Z,63.50
2018-01-02T09:35:25.639Z,63.70
2018-01-02T09:37:53.165Z,64.40
2018-01-02T09:40:20.671Z,65.10
2018-01-02T09:42:48.938Z,66.30
2018-01-02T09:45:16.448Z,66.30
2018-01-02T09:47:43.958Z,66.60
2018-01-02T09:50:11.508Z,67.20
2018-01-02T09:52:39.007Z,67.30
2018-01-02T09:55:06.518Z,67.50
2018-01-02T09:57:34.788Z,68.00
2018-01-02T10:00:02.306Z,68.00
2018-01-02T10:02:29.835Z,68.20
2018-01-02T10:04:57.358Z,68.30
2018-01-02T10:07:24.862Z,68.40
2018-01-02T10:09:52.356Z,68.40
2018-01-02T10:12:19.880Z,68.60
2018-01-02T10:14:48.176Z,68.70
2018-01-02T10:17:15.687Z,68.70
2018-01-02T10:19:43.204Z,68.60
2018-01-02T10:22:11.501Z,68.90
2018-01-02T10:24:39.764Z,69.00
2018-01-02T10:27:07.273Z,69.00
2018-01-02T10:29:34.821Z,68.90
2018-01-02T10:32:03.105Z,69.10
2018-01-02T10:34:30.629Z,69.00
2018-01-02T10:36:58.160Z,69.10
2018-01-02T10:39:26.478Z,69.10
2018-01-02T10:41:54.026Z,69.00
2018-01-02T10:44:21.529Z,69.20
2018-01-02T10:46:49.129Z,69.20
2018-01-02T10:49:17.427Z,69.20
2018-01-02T10:51:45.066Z,69.20
2018-01-02T10:54:12.567Z,69.20
2018-01-02T10:56:40.088Z,69.20
2018-01-02T10:59:07.586Z,69.20
2018-01-02T11:01:35.091Z,69.20
2018-01-02T11:04:02.642Z,69.20
2018-01-02T11:06:30.196Z,69.20
2018-01-02T11:08:58.457Z,69.30
2018-01-02T11:11:31.716Z,69.40
2018-01-02T11:13:59.201Z,69.20
2018-01-02T11:16:26.767Z,69.40
2018-01-02T11:18:54.285Z,69.30
2018-01-02T11:21:21.845Z,69.30
2018-01-02T11:23:49.333Z,69.30
2018-01-02T11:26:16.847Z,69.30
2018-01-02T11:28:44.348Z,68.70
2018-01-02T11:31:11.884Z,69.40
2018-01-02T11:33:39.380Z,69.40
2018-01-02T11:36:06.891Z,69.40
2018-01-02T11:38:35.177Z,69.40
2018-01-02T11:41:03.452Z,69.90
2018-01-02T11:43:30.964Z,69.30
2018-01-02T11:45:58.464Z,69.40
2018-01-02T11:48:25.971Z,69.40
2018-01-02T11:50:53.469Z,69.40
2018-01-02T11:53:21.745Z,69.30
2018-01-02T11:55:49.269Z,69.40
2018-01-02T11:58:16.842Z,69.40
2018-01-02T12:00:44.343Z,69.40
2018-01-02T12:03:11.823Z,69.30
2018-01-02T12:05:39.330Z,69.40
2018-01-02T12:08:06.826Z,69.30
2018-01-02T12:10:34.374Z,69.40
2018-01-02T12:13:01.871Z,69.40
2018-01-02T12:15:29.380Z,69.40
2018-01-02T12:17:56.884Z,69.30
2018-01-02T12:20:25.171Z,69.40
2018-01-02T12:22:52.682Z,69.30
2018-01-02T12:25:20.195Z,69.40
2018-01-02T12:27:48.479Z,69.40
2018-01-02T12:30:16.767Z,69.30
2018-01-02T12:32:45.022Z,69.50
2018-01-02T12:35:12.525Z,69.30
2018-01-02T12:37:40.028Z,69.40
2018-01-02T12:40:07.553Z,70.20
2018-01-02T12:42:35.087Z,69.40
2018-01-02T12:45:02.706Z,69.40
2018-01-02T12:47:30.211Z,69.30
2018-01-02T12:49:57.740Z,69.30
2018-01-02T12:52:26.765Z,69.30
2018-01-02T12:54:55.256Z,69.30
2018-01-02T12:57:22.775Z,69.30
2018-01-02T12:59:49.788Z,69.40
2018-01-02T13:02:16.760Z,69.30
2018-01-02T13:04:43.742Z,69.30
2018-01-02T13:07:11.522Z,69.50
2018-01-02T13:09:39.268Z,69.30
2018-01-02T13:12:06.317Z,69.30
2018-01-02T13:14:33.300Z,69.30
2018-01-02T13:17:00.256Z,69.30
2018-01-02T13:19:27.216Z,69.30
2018-01-02T13:21:54.195Z,69.30
2018-01-02T13:24:21.945Z,69.30
2018-01-02T13:26:48.901Z,70.00
2018-01-02T13:29:15.868Z,69.20
2018-01-02T13:31:42.832Z,68.80
2018-01-02T13:34:10.025Z,68.50
2018-01-02T13:36:36.983Z,68.30
2018-01-02T13:39:04.787Z,68.40
2018-01-02T13:41:31.763Z,68.20
2018-01-02T13:43:58.730Z,68.20
2018-01-02T13:46:25.699Z,68.20
2018-01-02T13:48:52.655Z,68.20
2018-01-02T13:51:19.614Z,68.20
2018-01-02T13:53:46.583Z,68.30
2018-01-02T13:56:13.540Z,68.20
2018-01-02T13:58:40.558Z,68.20
2018-01-02T14:01:08.253Z,69.50
2018-01-02T14:03:35.219Z,68.40
2018-01-02T14:06:02.176Z,68.40
2018-01-02T14:08:29.155Z,68.50
2018-01-02T14:10:56.125Z,68.60
2018-01-02T14:13:23.874Z,68.00
2018-01-02T14:15:50.850Z,67.90
2018-01-02T14:18:17.820Z,64.40
2018-01-02T14:20:44.795Z,60.90
2018-01-02T14:23:12.573Z,58.70
2018-01-02T14:25:40.354Z,57.20
2018-01-02T14:28:08.073Z,56.70
2018-01-02T14:30:35.043Z,56.70
2018-01-02T14:33:02.004Z,56.30
2018-01-02T14:35:28.970Z,56.10
2018-01-02T14:37:55.986Z,55.90
2018-01-02T14:40:22.965Z,55.60
2018-01-02T14:42:49.929Z,55.40
2018-01-02T14:45:16.883Z,55.30
2018-01-02T14:47:43.861Z,55.20
2018-01-02T14:50:10.819Z,55.10
2018-01-02T14:52:37.779Z,55.00
2018-01-02T14:55:04.746Z,55.00
2018-01-02T14:57:31.771Z,54.90
2018-01-02T14:59:58.738Z,54.90
2018-01-02T15:02:25.707Z,55.00
2018-01-02T15:04:52.671Z,55.00
2018-01-02T15:07:19.693Z,55.00
2018-01-02T15:09:46.661Z,54.90
2018-01-02T15:12:13.638Z,54.90
2018-01-02T15:14:40.607Z,54.80
2018-01-02T15:17:08.313Z,54.80
2018-01-02T15:19:36.068Z,54.70
2018-01-02T15:22:03.049Z,54.70
2018-01-02T15:24:30.814Z,54.70
2018-01-02T15:26:58.572Z,54.90
2018-01-02T15:29:25.579Z,54.70
2018-01-02T15:31:52.545Z,54.60
2018-01-02T15:34:20.299Z,54.60
2018-01-02T15:36:47.294Z,54.60
2018-01-02T15:39:14.413Z,54.60
2018-01-02T15:41:41.379Z,54.70
2018-01-02T15:44:08.344Z,54.60
2018-01-02T15:46:35.313Z,54.60
2018-01-02T15:49:02.277Z,54.50
2018-01-02T15:51:30.082Z,54.60
2018-01-02T15:53:57.090Z,54.50
2018-01-02T15:56:24.066Z,54.50
2018-01-02T15:58:51.837Z,54.40
2018-01-02T16:01:18.865Z,54.40
2018-01-02T16:03:45.892Z,55.10
2018-01-02T16:06:12.866Z,54.60
2018-01-02T16:08:39.839Z,54.60
2018-01-02T16:11:06.847Z,54.70
2018-01-02T16:13:34.625Z,55.20
2018-01-02T16:16:01.616Z,55.10
2018-01-02T16:18:28.592Z,56.90
2018-01-02T16:20:55.567Z,58.60
2018-01-02T16:23:22.554Z,60.20
2018-01-02T16:25:50.334Z,63.30
2018-01-02T16:28:18.126Z,64.10
2018-01-02T16:30:45.148Z,63.90
2018-01-02T16:33:12.153Z,65.00
2018-01-02T16:35:39.130Z,65.60
2018-01-02T16:38:06.102Z,66.10
2018-01-02T16:40:33.074Z,66.70
2018-01-02T16:43:00.094Z,66.80
2018-01-02T16:45:27.120Z,67.20
2018-01-02T16:47:54.127Z,67.50
2018-01-02T16:50:21.129Z,67.70
2018-01-02T16:52:48.142Z,67.80
2018-01-02T16:55:15.177Z,67.60
2018-01-02T16:57:42.964Z,68.30
2018-01-02T17:00:10.776Z,68.50
2018-01-02T17:02:38.433Z,68.40
2018-01-02T17:05:05.453Z,68.60
2018-01-02T17:07:33.440Z,68.70
2018-01-02T17:10:00.487Z,68.70
2018-01-02T17:12:27.450Z,68.80
2018-01-02T17:14:54.451Z,68.80
2018-01-02T17:17:21.426Z,68.90
2018-01-02T17:19:49.172Z,69.10
2018-01-02T17:22:16.962Z,69.10
2018-01-02T17:24:43.975Z,69.10
2018-01-02T17:27:10.959Z,69.10
2018-01-02T17:29:38.772Z,69.20
2018-01-02T17:32:05.805Z,69.10
2018-01-02T17:34:33.594Z,69.20
2018-01-02T17:37:00.642Z,69.20
2018-01-02T17:39:28.420Z,69.40
2018-01-02T17:41:56.169Z,69.40
2018-01-02T17:44:23.221Z,69.20
2018-01-02T17:46:50.210Z,69.30
2018-01-02T17:49:17.994Z,69.40
2018-01-02T17:51:45.794Z,69.40
2018-01-02T17:54:12.788Z,69.40
2018-01-02T17:56:39.827Z,69.40
2018-01-02T17:59:06.849Z,69.50
2018-01-02T18:01:34.619Z,69.40
2018-01-02T18:04:02.413Z,69.40
2018-01-02T18:06:30.222Z,69.40
2018-01-02T18:08:57.212Z,69.40
2018-01-02T18:11:24.194Z,69.40
2018-01-02T18:13:51.978Z,69.60
2018-01-02T18:16:19.783Z,69.50
2018-01-02T18:18:46.819Z,69.40
2018-01-02T18:21:14.630Z,69.50
2018-01-02T18:23:41.646Z,69.40
2018-01-02T18:26:08.705Z,69.40
2018-01-02T18:28:35.820Z,69.40
2018-01-02T18:31:02.957Z,69.40
2018-01-02T18:33:30.018Z,69.40
2018-01-02T18:35:57.817Z,69.50
2018-01-02T18:38:24.837Z,69.50
2018-01-02T18:40:52.633Z,70.30
2018-01-02T18:43:19.645Z,70.20
2018-01-02T18:45:46.611Z,69.50
2018-01-02T18:48:13.575Z,69.40
2018-01-02T18:50:40.604Z,69.50
2018-01-02T18:53:07.621Z,69.50
2018-01-02T18:55:35.404Z,69.50
2018-01-02T18:58:02.503Z,69.50
2018-01-02T19:00:29.526Z,69.50
2018-01-02T19:02:56.555Z,69.50
2018-01-02T19:05:24.339Z,69.50
2018-01-02T19:07:52.159Z,69.50
2018-01-02T19:10:19.151Z,69.50
2018-01-02T19:12:46.170Z,69.50
2018-01-02T19:15:13.187Z,69.50
2018-01-02T19:17:40.227Z,69.50
2018-01-02T19:20:07.244Z,69.50
2018-01-02T19:22:34.291Z,69.50
2018-01-02T19:25:01.313Z,69.50
2018-01-02T19:27:29.253Z,69.50
2018-01-02T19:29:56.293Z,69.50
2018-01-02T19:32:23.310Z,69.50
2018-01-02T19:34:50.347Z,69.50
2018-01-02T19:37:17.394Z,69.50
2018-01-02T19:39:44.434Z,69.50
2018-01-02T19:42:11.482Z,69.60
2018-01-02T19:44:39.453Z,69.50
2018-01-02T19:47:06.498Z,69.60
2018-01-02T19:49:33.513Z,69.60
2018-01-02T19:52:00.539Z,69.50
2018-01-02T19:54:27.575Z,69.60
2018-01-02T19:56:54.589Z,69.50
2018-01-02T19:59:21.624Z,69.40
2018-01-02T20:01:49.412Z,70.20
2018-01-02T20:04:17.196Z,69.50
2018-01-02T20:06:44.988Z,69.50
2018-01-02T20:09:12.008Z,69.50
2018-01-02T20:11:39.829Z,69.50
2018-01-02T20:14:06.842Z,69.50
2018-01-02T20:16:33.864Z,69.50
2018-01-02T20:19:00.879Z,69.50
2018-01-02T20:21:28.673Z,69.50
2018-01-02T20:23:55.710Z,69.50
2018-01-02T20:26:23.053Z,69.50
2018-01-02T20:28:51.237Z,69.50
2018-01-02T20:31:18.247Z,69.60
2018-01-02T20:33:45.307Z,69.60
2018-01-02T20:36:12.316Z,69.50
2018-01-02T20:38:39.340Z,69.50
2018-01-02T20:41:07.116Z,69.60
2018-01-02T20:43:34.155Z,69.40
2018-01-02T20:46:01.175Z,69.60
2018-01-02T20:48:28.216Z,69.60
2018-01-02T20:50:56.037Z,69.60
2018-01-02T20:53:23.069Z,69.50
2018-01-02T20:55:50.214Z,69.40
2018-01-02T20:58:18.014Z,69.50
2018-01-02T21:00:45.114Z,69.50
2018-01-02T21:03:12.933Z,69.50
2018-01-02T21:07:03.685Z,69.40
2018-01-02T21:09:30.712Z,69.50
2018-01-02T21:11:57.762Z,69.50
2018-01-02T21:14:24.932Z,69.50
2018-01-02T21:16:51.995Z,69.50
2018-01-02T21:19:19.054Z,69.50
2018-01-02T21:21:46.098Z,69.50
2018-01-02T21:24:13.122Z,69.60
2018-01-02T21:26:40.184Z,69.50
2018-01-02T21:29:07.203Z,69.60
2018-01-02T21:31:34.262Z,69.60
2018-01-02T21:34:03.169Z,69.60
2018-01-02T21:36:30.197Z,69.60
2018-01-02T21:38:57.310Z,69.50
2018-01-02T21:41:25.117Z,69.60
2018-01-02T21:43:52.143Z,69.60
2018-01-02T21:46:19.177Z,69.60
2018-01-02T21:48:46.329Z,69.60
2018-01-02T21:51:13.354Z,69.60
2018-01-02T21:53:41.164Z,70.30
2018-01-02T21:56:08.338Z,69.40
2018-01-02T21:58:35.372Z,69.40
2018-01-02T22:01:02.387Z,69.60
2018-01-02T22:03:29.489Z,69.40
2018-01-02T22:05:56.515Z,69.40
2018-01-02T22:08:23.598Z,69.50
2018-01-02T22:10:50.635Z,69.50
2018-01-02T22:13:18.007Z,69.50
2018-01-02T22:15:45.133Z,69.50
2018-01-02T22:18:12.171Z,69.50
2018-01-02T22:20:39.950Z,69.50
2018-01-02T22:23:07.730Z,69.60
2018-01-02T22:25:35.504Z,69.60
2018-01-02T22:28:02.527Z,69.60
2018-01-02T22:30:29.599Z,69.60
2018-01-02T22:32:56.620Z,69.60
2018-01-02T22:35:23.638Z,69.50
2018-01-02T22:37:51.412Z,69.60
2018-01-02T22:40:19.208Z,69.60
2018-01-02T22:42:46.243Z,69.60
2018-01-02T22:45:14.054Z,69.60
2018-01-02T22:47:41.050Z,69.60
2018-01-02T22:50:08.074Z,69.50
2018-01-02T22:52:35.111Z,69.50
2018-01-02T22:55:02.899Z,69.60
2018-01-02T22:57:29.956Z,69.50
2018-01-02T22:59:57.011Z,69.50
2018-01-02T23:02:24.073Z,69.50
2018-01-02T23:04:51.875Z,69.60
2018-01-02T23:07:18.930Z,69.50
2018-01-02T23:09:46.133Z,69.50
2018-01-02T23:12:13.173Z,70.30
2018-01-02T23:14:40.949Z,69.50
2018-01-02T23:17:07.999Z,69.60
2018-01-02T23:19:35.026Z,69.50
2018-01-02T23:22:02.883Z,69.60
2018-01-02T23:24:29.927Z,69.40
2018-01-02T23:26:56.970Z,69.60
2018-01-02T23:29:24.008Z,69.40
2018-01-02T23:31:51.020Z,69.50
2018-01-02T23:34:18.117Z,69.40
2018-01-02T23:36:45.903Z,69.40
2018-01-02T23:39:12.933Z,69.40
2018-01-02T23:41:39.939Z,69.40
2018-01-02T23:44:06.986Z,70.20
2018-01-02T23:46:34.041Z,69.40
2018-01-02T23:49:01.100Z,69.40
2018-01-02T23:51:28.154Z,69.40
2018-01-02T23:53:55.937Z,69.40
2018-01-02T23:56:23.011Z,69.40
2018-01-02T23:58:50.029Z,69.40
